sensor_id;sensor_type;location;lat;lon;timestamp;P1;durP1;ratioP1;P2;durP2;ratioP2
13967;SDS011;39536;52.198;9.920;2023-04-01T00:01:26;4.30;;;1.43;;
13967;SDS011;39536;52.198;9.920;2023-04-01T00:03:53;2.87;;;1.20;;
13967;SDS011;39536;52.198;9.920;2023-04-01T00:06:21;4.67;;;1.43;;
13967;SDS011;39536;52.198;9.920;2023-04-01T00:08:48;3.30;;;1.23;;
13967;SDS011;39536;52.198;9.920;2023-04-01T00:11:15;2.30;;;1.07;;
13967;SDS011;39536;52.198;9.920;2023-04-01T00:13:42;2.47;;;1.30;;
13967;SDS011;39536;52.198;9.920;2023-04-01T00:16:11;4.70;;;1.50;;
13967;SDS011;39536;52.198;9.920;2023-04-01T00:18:38;2.03;;;1.10;;
13967;SDS011;39536;52.198;9.920;2023-04-01T00:21:05;3.03;;;1.07;;
13967;SDS011;39536;52.198;9.920;2023-04-01T00:23:32;1.67;;;0.90;;
13967;SDS011;39536;52.198;9.920;2023-04-01T00:25:58;2.33;;;1.20;;
13967;SDS011;39536;52.198;9.920;2023-04-01T00:28:26;1.40;;;0.90;;
13967;SDS011;39536;52.198;9.920;2023-04-01T00:30:53;2.37;;;1.60;;
13967;SDS011;39536;52.198;9.920;2023-04-01T00:33:21;1.67;;;0.73;;
13967;SDS011;39536;52.198;9.920;2023-04-01T00:35:47;1.30;;;0.90;;
13967;SDS011;39536;52.198;9.920;2023-04-01T00:38:14;1.60;;;0.63;;
13967;SDS011;39536;52.198;9.920;2023-04-01T00:40:42;1.83;;;0.80;;
13967;SDS011;39536;52.198;9.920;2023-04-01T00:43:11;2.00;;;0.70;;
13967;SDS011;39536;52.198;9.920;2023-04-01T00:45:39;0.83;;;0.60;;
13967;SDS011;39536;52.198;9.920;2023-04-01T00:48:09;1.53;;;0.87;;
13967;SDS011;39536;52.198;9.920;2023-04-01T00:50:42;1.67;;;1.00;;
13967;SDS011;39536;52.198;9.920;2023-04-01T00:53:12;3.20;;;1.10;;
13967;SDS011;39536;52.198;9.920;2023-04-01T00:55:41;2.83;;;1.17;;
13967;SDS011;39536;52.198;9.920;2023-04-01T00:58:13;2.30;;;0.77;;
13967;SDS011;39536;52.198;9.920;2023-04-01T01:00:43;3.67;;;0.93;;
13967;SDS011;39536;52.198;9.920;2023-04-01T01:03:11;0.60;;;0.47;;
13967;SDS011;39536;52.198;9.920;2023-04-01T01:05:45;1.17;;;0.70;;
13967;SDS011;39536;52.198;9.920;2023-04-01T01:08:31;0.80;;;0.50;;
13967;SDS011;39536;52.198;9.920;2023-04-01T01:11:06;3.37;;;0.60;;
13967;SDS011;39536;52.198;9.920;2023-04-01T01:13:38;1.80;;;0.73;;
13967;SDS011;39536;52.198;9.920;2023-04-01T01:16:12;1.83;;;0.70;;
13967;SDS011;39536;52.198;9.920;2023-04-01T01:18:47;2.33;;;0.70;;
13967;SDS011;39536;52.198;9.920;2023-04-01T01:24:17;1.37;;;0.57;;
13967;SDS011;39536;52.198;9.920;2023-04-01T01:27:01;0.70;;;0.30;;
13967;SDS011;39536;52.198;9.920;2023-04-01T01:32:38;2.40;;;0.70;;
13967;SDS011;39536;52.198;9.920;2023-04-01T01:35:19;0.50;;;0.50;;
13967;SDS011;39536;52.198;9.920;2023-04-01T01:37:49;2.23;;;0.80;;
13967;SDS011;39536;52.198;9.920;2023-04-01T01:40:20;0.60;;;0.60;;
13967;SDS011;39536;52.198;9.920;2023-04-01T01:42:48;0.40;;;0.40;;
13967;SDS011;39536;52.198;9.920;2023-04-01T01:45:18;2.40;;;0.73;;
13967;SDS011;39536;52.198;9.920;2023-04-01T01:47:47;2.43;;;0.73;;
13967;SDS011;39536;52.198;9.920;2023-04-01T01:50:16;2.17;;;0.60;;
13967;SDS011;39536;52.198;9.920;2023-04-01T01:52:45;1.10;;;0.70;;
13967;SDS011;39536;52.198;9.920;2023-04-01T01:55:26;1.33;;;0.60;;
13967;SDS011;39536;52.198;9.920;2023-04-01T01:57:54;0.90;;;0.60;;
13967;SDS011;39536;52.198;9.920;2023-04-01T02:00:23;2.67;;;1.20;;
13967;SDS011;39536;52.198;9.920;2023-04-01T02:02:51;2.10;;;1.00;;
13967;SDS011;39536;52.198;9.920;2023-04-01T02:05:20;2.03;;;0.67;;
13967;SDS011;39536;52.198;9.920;2023-04-01T02:07:53;1.90;;;0.90;;
13967;SDS011;39536;52.198;9.920;2023-04-01T02:10:24;1.77;;;0.87;;
13967;SDS011;39536;52.198;9.920;2023-04-01T02:12:53;1.77;;;0.60;;
13967;SDS011;39536;52.198;9.920;2023-04-01T02:15:26;1.80;;;0.80;;
13967;SDS011;39536;52.198;9.920;2023-04-01T02:17:58;1.07;;;0.60;;
13967;SDS011;39536;52.198;9.920;2023-04-01T02:20:25;2.27;;;0.80;;
13967;SDS011;39536;52.198;9.920;2023-04-01T02:22:56;1.77;;;0.70;;
13967;SDS011;39536;52.198;9.920;2023-04-01T02:25:25;0.70;;;0.60;;
13967;SDS011;39536;52.198;9.920;2023-04-01T02:27:54;1.27;;;0.60;;
13967;SDS011;39536;52.198;9.920;2023-04-01T02:30:24;2.90;;;0.67;;
13967;SDS011;39536;52.198;9.920;2023-04-01T02:32:53;2.17;;;0.60;;
13967;SDS011;39536;52.198;9.920;2023-04-01T02:35:21;0.90;;;0.60;;
13967;SDS011;39536;52.198;9.920;2023-04-01T02:37:48;1.13;;;0.80;;
13967;SDS011;39536;52.198;9.920;2023-04-01T02:40:17;4.00;;;0.80;;
13967;SDS011;39536;52.198;9.920;2023-04-01T02:42:44;1.30;;;0.80;;
13967;SDS011;39536;52.198;9.920;2023-04-01T02:45:12;1.90;;;0.80;;
13967;SDS011;39536;52.198;9.920;2023-04-01T02:47:39;1.43;;;0.80;;
13967;SDS011;39536;52.198;9.920;2023-04-01T02:50:06;0.83;;;0.70;;
13967;SDS011;39536;52.198;9.920;2023-04-01T02:52:33;1.50;;;0.47;;
13967;SDS011;39536;52.198;9.920;2023-04-01T02:55:00;3.63;;;0.93;;
13967;SDS011;39536;52.198;9.920;2023-04-01T02:57:28;0.77;;;0.77;;
13967;SDS011;39536;52.198;9.920;2023-04-01T02:59:55;1.63;;;0.80;;
13967;SDS011;39536;52.198;9.920;2023-04-01T03:02:22;2.47;;;1.07;;
13967;SDS011;39536;52.198;9.920;2023-04-01T03:04:48;1.83;;;0.97;;
13967;SDS011;39536;52.198;9.920;2023-04-01T03:07:15;2.20;;;1.00;;
13967;SDS011;39536;52.198;9.920;2023-04-01T03:09:42;3.40;;;1.23;;
13967;SDS011;39536;52.198;9.920;2023-04-01T03:12:08;2.50;;;0.90;;
13967;SDS011;39536;52.198;9.920;2023-04-01T03:14:36;1.17;;;0.80;;
13967;SDS011;39536;52.198;9.920;2023-04-01T03:17:03;3.33;;;1.37;;
13967;SDS011;39536;52.198;9.920;2023-04-01T03:19:30;1.53;;;0.73;;
13967;SDS011;39536;52.198;9.920;2023-04-01T03:21:57;2.13;;;0.90;;
13967;SDS011;39536;52.198;9.920;2023-04-01T03:24:23;3.17;;;1.17;;
13967;SDS011;39536;52.198;9.920;2023-04-01T03:26:50;1.63;;;0.83;;
13967;SDS011;39536;52.198;9.920;2023-04-01T03:29:16;0.73;;;0.70;;
13967;SDS011;39536;52.198;9.920;2023-04-01T03:31:44;1.33;;;0.80;;
13967;SDS011;39536;52.198;9.920;2023-04-01T03:34:11;1.83;;;0.90;;
13967;SDS011;39536;52.198;9.920;2023-04-01T03:36:38;1.77;;;1.30;;
13967;SDS011;39536;52.198;9.920;2023-04-01T03:39:04;3.13;;;1.00;;
13967;SDS011;39536;52.198;9.920;2023-04-01T03:41:31;2.47;;;1.07;;
13967;SDS011;39536;52.198;9.920;2023-04-01T03:43:58;2.97;;;0.80;;
13967;SDS011;39536;52.198;9.920;2023-04-01T03:46:25;2.73;;;1.33;;
13967;SDS011;39536;52.198;9.920;2023-04-01T03:48:52;2.40;;;0.97;;
13967;SDS011;39536;52.198;9.920;2023-04-01T03:51:19;2.30;;;0.80;;
13967;SDS011;39536;52.198;9.920;2023-04-01T03:53:46;1.43;;;0.70;;
13967;SDS011;39536;52.198;9.920;2023-04-01T03:56:12;0.73;;;0.47;;
13967;SDS011;39536;52.198;9.920;2023-04-01T03:58:39;1.50;;;0.70;;
13967;SDS011;39536;52.198;9.920;2023-04-01T04:01:12;0.70;;;0.70;;
13967;SDS011;39536;52.198;9.920;2023-04-01T04:03:40;1.60;;;0.90;;
13967;SDS011;39536;52.198;9.920;2023-04-01T04:06:11;2.87;;;1.00;;
13967;SDS011;39536;52.198;9.920;2023-04-01T04:08:38;1.83;;;1.40;;
13967;SDS011;39536;52.198;9.920;2023-04-01T04:11:05;1.60;;;0.90;;
13967;SDS011;39536;52.198;9.920;2023-04-01T04:13:31;1.57;;;0.80;;
13967;SDS011;39536;52.198;9.920;2023-04-01T04:15:58;1.20;;;0.70;;
13967;SDS011;39536;52.198;9.920;2023-04-01T04:18:25;2.87;;;0.90;;
13967;SDS011;39536;52.198;9.920;2023-04-01T04:20:51;0.77;;;0.77;;
13967;SDS011;39536;52.198;9.920;2023-04-01T04:23:19;0.97;;;0.80;;
13967;SDS011;39536;52.198;9.920;2023-04-01T04:25:53;4.13;;;0.93;;
13967;SDS011;39536;52.198;9.920;2023-04-01T04:28:21;1.70;;;1.13;;
13967;SDS011;39536;52.198;9.920;2023-04-01T04:30:48;2.57;;;0.93;;
13967;SDS011;39536;52.198;9.920;2023-04-01T04:33:15;2.43;;;1.00;;
13967;SDS011;39536;52.198;9.920;2023-04-01T04:35:41;3.43;;;0.70;;
13967;SDS011;39536;52.198;9.920;2023-04-01T04:38:08;2.87;;;1.30;;
13967;SDS011;39536;52.198;9.920;2023-04-01T04:40:37;1.93;;;0.87;;
13967;SDS011;39536;52.198;9.920;2023-04-01T04:43:03;0.90;;;0.90;;
13967;SDS011;39536;52.198;9.920;2023-04-01T04:45:30;1.53;;;1.30;;
13967;SDS011;39536;52.198;9.920;2023-04-01T04:47:57;3.60;;;1.53;;
13967;SDS011;39536;52.198;9.920;2023-04-01T04:50:24;2.00;;;1.73;;
13967;SDS011;39536;52.198;9.920;2023-04-01T04:52:51;2.50;;;1.30;;
13967;SDS011;39536;52.198;9.920;2023-04-01T04:55:18;2.87;;;1.30;;
13967;SDS011;39536;52.198;9.920;2023-04-01T04:57:46;2.80;;;1.43;;
13967;SDS011;39536;52.198;9.920;2023-04-01T05:00:13;1.43;;;1.30;;
13967;SDS011;39536;52.198;9.920;2023-04-01T05:02:40;1.60;;;1.07;;
13967;SDS011;39536;52.198;9.920;2023-04-01T05:05:06;1.80;;;1.10;;
13967;SDS011;39536;52.198;9.920;2023-04-01T05:07:34;1.10;;;1.00;;
13967;SDS011;39536;52.198;9.920;2023-04-01T05:10:00;2.40;;;1.00;;
13967;SDS011;39536;52.198;9.920;2023-04-01T05:12:27;2.87;;;1.03;;
13967;SDS011;39536;52.198;9.920;2023-04-01T05:14:55;1.10;;;1.00;;
13967;SDS011;39536;52.198;9.920;2023-04-01T05:17:21;2.43;;;1.20;;
13967;SDS011;39536;52.198;9.920;2023-04-01T05:19:48;2.30;;;1.03;;
13967;SDS011;39536;52.198;9.920;2023-04-01T05:22:16;2.43;;;1.03;;
13967;SDS011;39536;52.198;9.920;2023-04-01T05:24:42;5.80;;;1.30;;
13967;SDS011;39536;52.198;9.920;2023-04-01T05:27:09;2.23;;;1.30;;
13967;SDS011;39536;52.198;9.920;2023-04-01T05:29:36;2.33;;;0.90;;
13967;SDS011;39536;52.198;9.920;2023-04-01T05:32:03;1.73;;;1.30;;
13967;SDS011;39536;52.198;9.920;2023-04-01T05:34:30;2.33;;;1.03;;
13967;SDS011;39536;52.198;9.920;2023-04-01T05:36:57;4.93;;;1.40;;
13967;SDS011;39536;52.198;9.920;2023-04-01T05:39:24;1.23;;;1.13;;
13967;SDS011;39536;52.198;9.920;2023-04-01T05:41:50;3.77;;;1.50;;
13967;SDS011;39536;52.198;9.920;2023-04-01T05:44:17;4.03;;;1.90;;
13967;SDS011;39536;52.198;9.920;2023-04-01T05:46:43;3.03;;;1.63;;
13967;SDS011;39536;52.198;9.920;2023-04-01T05:49:11;1.87;;;1.57;;
13967;SDS011;39536;52.198;9.920;2023-04-01T05:51:38;3.07;;;1.40;;
13967;SDS011;39536;52.198;9.920;2023-04-01T05:54:05;1.90;;;1.40;;
13967;SDS011;39536;52.198;9.920;2023-04-01T05:56:32;2.60;;;1.80;;
13967;SDS011;39536;52.198;9.920;2023-04-01T05:58:58;1.27;;;1.13;;
13967;SDS011;39536;52.198;9.920;2023-04-01T06:01:25;1.90;;;1.50;;
13967;SDS011;39536;52.198;9.920;2023-04-01T06:03:52;3.80;;;1.53;;
13967;SDS011;39536;52.198;9.920;2023-04-01T06:06:22;3.07;;;2.20;;
13967;SDS011;39536;52.198;9.920;2023-04-01T06:08:51;2.23;;;1.43;;
13967;SDS011;39536;52.198;9.920;2023-04-01T06:11:22;2.57;;;1.43;;
13967;SDS011;39536;52.198;9.920;2023-04-01T06:14:07;1.57;;;1.40;;
13967;SDS011;39536;52.198;9.920;2023-04-01T06:16:46;2.67;;;1.43;;
13967;SDS011;39536;52.198;9.920;2023-04-01T06:19:27;2.60;;;1.40;;
13967;SDS011;39536;52.198;9.920;2023-04-01T06:25:07;2.33;;;1.10;;
13967;SDS011;39536;52.198;9.920;2023-04-01T06:28:07;4.07;;;1.27;;
13967;SDS011;39536;52.198;9.920;2023-04-01T06:30:59;2.90;;;1.77;;
13967;SDS011;39536;52.198;9.920;2023-04-01T06:33:46;3.27;;;1.50;;
13967;SDS011;39536;52.198;9.920;2023-04-01T06:36:32;4.03;;;2.20;;
13967;SDS011;39536;52.198;9.920;2023-04-01T06:42:21;1.97;;;1.10;;
13967;SDS011;39536;52.198;9.920;2023-04-01T06:45:00;6.70;;;1.97;;
13967;SDS011;39536;52.198;9.920;2023-04-01T06:47:44;2.50;;;1.03;;
13967;SDS011;39536;52.198;9.920;2023-04-01T06:50:24;2.30;;;1.20;;
13967;SDS011;39536;52.198;9.920;2023-04-01T06:52:56;2.30;;;1.23;;
13967;SDS011;39536;52.198;9.920;2023-04-01T06:55:32;3.63;;;2.07;;
13967;SDS011;39536;52.198;9.920;2023-04-01T06:58:10;1.83;;;1.20;;
13967;SDS011;39536;52.198;9.920;2023-04-01T07:00:44;2.80;;;1.10;;
13967;SDS011;39536;52.198;9.920;2023-04-01T07:03:18;5.23;;;1.70;;
13967;SDS011;39536;52.198;9.920;2023-04-01T07:05:49;3.00;;;1.30;;
13967;SDS011;39536;52.198;9.920;2023-04-01T07:08:17;7.50;;;2.03;;
13967;SDS011;39536;52.198;9.920;2023-04-01T07:10:47;3.47;;;1.27;;
13967;SDS011;39536;52.198;9.920;2023-04-01T07:13:21;2.13;;;1.10;;
13967;SDS011;39536;52.198;9.920;2023-04-01T07:15:58;3.13;;;1.70;;
13967;SDS011;39536;52.198;9.920;2023-04-01T07:18:32;2.80;;;1.43;;
13967;SDS011;39536;52.198;9.920;2023-04-01T07:21:03;2.43;;;1.23;;
13967;SDS011;39536;52.198;9.920;2023-04-01T07:23:36;2.87;;;1.17;;
13967;SDS011;39536;52.198;9.920;2023-04-01T07:26:11;2.43;;;1.00;;
13967;SDS011;39536;52.198;9.920;2023-04-01T07:28:43;2.10;;;1.30;;
13967;SDS011;39536;52.198;9.920;2023-04-01T07:31:13;2.67;;;1.60;;
13967;SDS011;39536;52.198;9.920;2023-04-01T07:33:49;1.87;;;0.87;;
13967;SDS011;39536;52.198;9.920;2023-04-01T07:36:25;2.77;;;1.20;;
13967;SDS011;39536;52.198;9.920;2023-04-01T07:39:02;1.80;;;0.90;;
13967;SDS011;39536;52.198;9.920;2023-04-01T07:41:39;1.90;;;0.97;;
13967;SDS011;39536;52.198;9.920;2023-04-01T07:44:17;1.03;;;0.90;;
13967;SDS011;39536;52.198;9.920;2023-04-01T07:46:54;2.10;;;1.20;;
13967;SDS011;39536;52.198;9.920;2023-04-01T07:49:30;1.67;;;1.20;;
13967;SDS011;39536;52.198;9.920;2023-04-01T07:52:08;1.90;;;1.10;;
13967;SDS011;39536;52.198;9.920;2023-04-01T07:54:42;1.23;;;0.70;;
13967;SDS011;39536;52.198;9.920;2023-04-01T07:57:15;1.10;;;0.90;;
13967;SDS011;39536;52.198;9.920;2023-04-01T07:59:49;2.07;;;0.90;;
13967;SDS011;39536;52.198;9.920;2023-04-01T08:02:29;2.13;;;1.03;;
13967;SDS011;39536;52.198;9.920;2023-04-01T08:05:10;1.43;;;0.90;;
13967;SDS011;39536;52.198;9.920;2023-04-01T08:07:44;2.30;;;1.00;;
13967;SDS011;39536;52.198;9.920;2023-04-01T08:10:18;1.40;;;0.90;;
13967;SDS011;39536;52.198;9.920;2023-04-01T08:12:52;0.80;;;0.77;;
13967;SDS011;39536;52.198;9.920;2023-04-01T08:15:27;3.80;;;1.17;;
13967;SDS011;39536;52.198;9.920;2023-04-01T08:18:07;1.60;;;0.90;;
13967;SDS011;39536;52.198;9.920;2023-04-01T08:20:41;1.63;;;1.07;;
13967;SDS011;39536;52.198;9.920;2023-04-01T08:23:14;1.23;;;0.80;;
13967;SDS011;39536;52.198;9.920;2023-04-01T08:25:44;0.87;;;0.70;;
13967;SDS011;39536;52.198;9.920;2023-04-01T08:28:17;1.00;;;0.77;;
13967;SDS011;39536;52.198;9.920;2023-04-01T08:30:50;1.67;;;1.17;;
13967;SDS011;39536;52.198;9.920;2023-04-01T08:33:21;3.13;;;0.90;;
13967;SDS011;39536;52.198;9.920;2023-04-01T08:35:53;1.87;;;1.00;;
13967;SDS011;39536;52.198;9.920;2023-04-01T08:38:24;1.17;;;0.70;;
13967;SDS011;39536;52.198;9.920;2023-04-01T08:40:56;1.67;;;0.80;;
13967;SDS011;39536;52.198;9.920;2023-04-01T08:43:29;1.43;;;0.47;;
13967;SDS011;39536;52.198;9.920;2023-04-01T08:46:18;1.97;;;0.90;;
13967;SDS011;39536;52.198;9.920;2023-04-01T08:49:00;0.80;;;0.80;;
13967;SDS011;39536;52.198;9.920;2023-04-01T08:51:51;3.57;;;2.20;;
13967;SDS011;39536;52.198;9.920;2023-04-01T08:54:37;0.97;;;0.70;;
13967;SDS011;39536;52.198;9.920;2023-04-01T08:57:13;2.37;;;0.73;;
13967;SDS011;39536;52.198;9.920;2023-04-01T08:59:50;0.87;;;0.60;;
13967;SDS011;39536;52.198;9.920;2023-04-01T09:05:40;1.57;;;0.77;;
13967;SDS011;39536;52.198;9.920;2023-04-01T09:08:28;0.40;;;0.40;;
13967;SDS011;39536;52.198;9.920;2023-04-01T09:11:11;1.60;;;0.60;;
13967;SDS011;39536;52.198;9.920;2023-04-01T09:13:53;0.60;;;0.60;;
13967;SDS011;39536;52.198;9.920;2023-04-01T09:16:49;0.77;;;0.77;;
13967;SDS011;39536;52.198;9.920;2023-04-01T09:19:39;1.60;;;1.07;;
13967;SDS011;39536;52.198;9.920;2023-04-01T09:22:28;1.30;;;0.73;;
13967;SDS011;39536;52.198;9.920;2023-04-01T09:28:01;1.43;;;0.60;;
13967;SDS011;39536;52.198;9.920;2023-04-01T09:30:37;1.60;;;0.50;;
13967;SDS011;39536;52.198;9.920;2023-04-01T09:36:21;0.70;;;0.67;;
13967;SDS011;39536;52.198;9.920;2023-04-01T09:39:09;1.67;;;0.70;;
13967;SDS011;39536;52.198;9.920;2023-04-01T09:41:57;1.07;;;0.73;;
13967;SDS011;39536;52.198;9.920;2023-04-01T09:44:35;1.77;;;0.87;;
13967;SDS011;39536;52.198;9.920;2023-04-01T09:47:08;0.73;;;0.60;;
13967;SDS011;39536;52.198;9.920;2023-04-01T09:49:52;1.07;;;0.50;;
13967;SDS011;39536;52.198;9.920;2023-04-01T09:52:32;1.17;;;0.67;;
13967;SDS011;39536;52.198;9.920;2023-04-01T09:55:19;1.93;;;0.90;;
13967;SDS011;39536;52.198;9.920;2023-04-01T09:58:19;2.17;;;1.40;;
13967;SDS011;39536;52.198;9.920;2023-04-01T10:01:13;0.90;;;0.80;;
13967;SDS011;39536;52.198;9.920;2023-04-01T10:07:12;1.13;;;0.50;;
13967;SDS011;39536;52.198;9.920;2023-04-01T10:10:13;0.50;;;0.50;;
13967;SDS011;39536;52.198;9.920;2023-04-01T10:13:22;1.83;;;1.00;;
13967;SDS011;39536;52.198;9.920;2023-04-01T10:25:42;1.87;;;0.80;;
13967;SDS011;39536;52.198;9.920;2023-04-01T10:28:38;1.60;;;0.73;;
13967;SDS011;39536;52.198;9.920;2023-04-01T10:31:38;1.73;;;0.83;;
13967;SDS011;39536;52.198;9.920;2023-04-01T10:34:44;1.20;;;1.10;;
13967;SDS011;39536;52.198;9.920;2023-04-01T10:37:39;3.60;;;0.90;;
13967;SDS011;39536;52.198;9.920;2023-04-01T10:46:39;1.17;;;0.67;;
13967;SDS011;39536;52.198;9.920;2023-04-01T10:49:43;1.17;;;1.00;;
13967;SDS011;39536;52.198;9.920;2023-04-01T10:52:46;1.00;;;0.83;;
13967;SDS011;39536;52.198;9.920;2023-04-01T10:55:55;2.80;;;0.90;;
13967;SDS011;39536;52.198;9.920;2023-04-01T10:59:03;0.70;;;0.70;;
13967;SDS011;39536;52.198;9.920;2023-04-01T11:02:01;1.77;;;0.80;;
13967;SDS011;39536;52.198;9.920;2023-04-01T11:11:34;1.90;;;0.90;;
13967;SDS011;39536;52.198;9.920;2023-04-01T11:17:44;2.10;;;1.13;;
13967;SDS011;39536;52.198;9.920;2023-04-01T11:23:37;0.93;;;0.93;;
13967;SDS011;39536;52.198;9.920;2023-04-01T11:26:19;1.27;;;0.90;;
13967;SDS011;39536;52.198;9.920;2023-04-01T11:32:04;1.30;;;1.20;;
13967;SDS011;39536;52.198;9.920;2023-04-01T11:34:45;1.53;;;1.33;;
13967;SDS011;39536;52.198;9.920;2023-04-01T11:37:27;1.20;;;1.10;;
13967;SDS011;39536;52.198;9.920;2023-04-01T11:40:06;1.10;;;1.00;;
13967;SDS011;39536;52.198;9.920;2023-04-01T11:42:41;1.27;;;1.13;;
13967;SDS011;39536;52.198;9.920;2023-04-01T11:45:17;0.80;;;0.80;;
13967;SDS011;39536;52.198;9.920;2023-04-01T11:51:08;0.70;;;0.70;;
13967;SDS011;39536;52.198;9.920;2023-04-01T11:53:47;0.97;;;0.97;;
13967;SDS011;39536;52.198;9.920;2023-04-01T11:56:27;1.23;;;1.13;;
13967;SDS011;39536;52.198;9.920;2023-04-01T11:59:13;0.60;;;0.60;;
13967;SDS011;39536;52.198;9.920;2023-04-01T12:02:05;1.20;;;0.70;;
13967;SDS011;39536;52.198;9.920;2023-04-01T12:04:43;0.70;;;0.63;;
13967;SDS011;39536;52.198;9.920;2023-04-01T12:07:40;1.03;;;0.70;;
13967;SDS011;39536;52.198;9.920;2023-04-01T12:10:19;1.33;;;0.73;;
13967;SDS011;39536;52.198;9.920;2023-04-01T12:12:49;0.57;;;0.57;;
13967;SDS011;39536;52.198;9.920;2023-04-01T12:15:27;1.23;;;0.80;;
13967;SDS011;39536;52.198;9.920;2023-04-01T12:18:05;1.37;;;0.83;;
13967;SDS011;39536;52.198;9.920;2023-04-01T12:20:45;1.23;;;1.00;;
13967;SDS011;39536;52.198;9.920;2023-04-01T12:23:22;1.13;;;1.03;;
13967;SDS011;39536;52.198;9.920;2023-04-01T12:26:11;1.20;;;1.10;;
13967;SDS011;39536;52.198;9.920;2023-04-01T12:28:54;0.70;;;0.70;;
13967;SDS011;39536;52.198;9.920;2023-04-01T12:31:36;1.77;;;1.33;;
13967;SDS011;39536;52.198;9.920;2023-04-01T12:34:19;1.37;;;1.00;;
13967;SDS011;39536;52.198;9.920;2023-04-01T12:37:02;1.03;;;0.77;;
13967;SDS011;39536;52.198;9.920;2023-04-01T12:39:44;0.80;;;0.73;;
13967;SDS011;39536;52.198;9.920;2023-04-01T12:42:30;2.33;;;1.23;;
13967;SDS011;39536;52.198;9.920;2023-04-01T12:45:11;3.53;;;0.87;;
13967;SDS011;39536;52.198;9.920;2023-04-01T12:48:00;1.20;;;0.60;;
13967;SDS011;39536;52.198;9.920;2023-04-01T12:50:56;1.23;;;0.80;;
13967;SDS011;39536;52.198;9.920;2023-04-01T12:53:38;0.60;;;0.60;;
13967;SDS011;39536;52.198;9.920;2023-04-01T12:56:16;0.77;;;0.60;;
13967;SDS011;39536;52.198;9.920;2023-04-01T12:59:01;0.60;;;0.60;;
13967;SDS011;39536;52.198;9.920;2023-04-01T13:01:59;0.80;;;0.80;;
13967;SDS011;39536;52.198;9.920;2023-04-01T13:04:44;1.17;;;0.77;;
13967;SDS011;39536;52.198;9.920;2023-04-01T13:07:57;1.37;;;0.60;;
13967;SDS011;39536;52.198;9.920;2023-04-01T13:10:43;0.40;;;0.40;;
13967;SDS011;39536;52.198;9.920;2023-04-01T13:13:31;1.10;;;0.50;;
13967;SDS011;39536;52.198;9.920;2023-04-01T13:16:08;0.40;;;0.40;;
13967;SDS011;39536;52.198;9.920;2023-04-01T13:18:43;0.50;;;0.50;;
13967;SDS011;39536;52.198;9.920;2023-04-01T13:21:24;0.53;;;0.53;;
13967;SDS011;39536;52.198;9.920;2023-04-01T13:24:00;0.60;;;0.60;;
13967;SDS011;39536;52.198;9.920;2023-04-01T13:26:36;0.93;;;0.60;;
13967;SDS011;39536;52.198;9.920;2023-04-01T13:29:13;0.67;;;0.67;;
13967;SDS011;39536;52.198;9.920;2023-04-01T13:31:49;3.33;;;1.03;;
13967;SDS011;39536;52.198;9.920;2023-04-01T13:34:37;0.87;;;0.87;;
13967;SDS011;39536;52.198;9.920;2023-04-01T13:37:17;1.57;;;0.90;;
13967;SDS011;39536;52.198;9.920;2023-04-01T13:39:59;1.50;;;1.40;;
13967;SDS011;39536;52.198;9.920;2023-04-01T13:42:42;2.03;;;1.90;;
13967;SDS011;39536;52.198;9.920;2023-04-01T13:45:14;1.80;;;1.70;;
13967;SDS011;39536;52.198;9.920;2023-04-01T13:53:51;0.90;;;0.90;;
13967;SDS011;39536;52.198;9.920;2023-04-01T13:56:42;1.23;;;1.10;;
13967;SDS011;39536;52.198;9.920;2023-04-01T14:02:32;1.23;;;0.90;;
13967;SDS011;39536;52.198;9.920;2023-04-01T14:05:25;0.70;;;0.70;;
13967;SDS011;39536;52.198;9.920;2023-04-01T14:08:06;2.43;;;1.00;;
13967;SDS011;39536;52.198;9.920;2023-04-01T14:10:40;0.83;;;0.80;;
13967;SDS011;39536;52.198;9.920;2023-04-01T14:13:15;0.90;;;0.90;;
13967;SDS011;39536;52.198;9.920;2023-04-01T14:15:52;1.03;;;1.00;;
13967;SDS011;39536;52.198;9.920;2023-04-01T14:18:30;1.30;;;1.20;;
13967;SDS011;39536;52.198;9.920;2023-04-01T14:21:07;1.87;;;1.70;;
13967;SDS011;39536;52.198;9.920;2023-04-01T14:23:50;2.40;;;1.23;;
13967;SDS011;39536;52.198;9.920;2023-04-01T14:29:24;4.10;;;2.20;;
13967;SDS011;39536;52.198;9.920;2023-04-01T14:32:02;2.60;;;2.40;;
13967;SDS011;39536;52.198;9.920;2023-04-01T14:34:39;2.53;;;2.23;;
13967;SDS011;39536;52.198;9.920;2023-04-01T14:37:23;2.13;;;2.00;;
13967;SDS011;39536;52.198;9.920;2023-04-01T14:40:26;2.40;;;2.20;;
13967;SDS011;39536;52.198;9.920;2023-04-01T14:42:55;2.40;;;2.20;;
13967;SDS011;39536;52.198;9.920;2023-04-01T14:45:44;2.67;;;2.47;;
13967;SDS011;39536;52.198;9.920;2023-04-01T14:48:27;2.43;;;2.23;;
13967;SDS011;39536;52.198;9.920;2023-04-01T14:51:02;2.77;;;2.57;;
13967;SDS011;39536;52.198;9.920;2023-04-01T14:53:35;2.97;;;2.77;;
13967;SDS011;39536;52.198;9.920;2023-04-01T14:56:05;3.67;;;3.47;;
13967;SDS011;39536;52.198;9.920;2023-04-01T14:58:40;3.70;;;3.50;;
13967;SDS011;39536;52.198;9.920;2023-04-01T15:01:25;4.30;;;4.10;;
13967;SDS011;39536;52.198;9.920;2023-04-01T15:04:12;4.77;;;4.37;;
13967;SDS011;39536;52.198;9.920;2023-04-01T15:07:00;4.50;;;4.30;;
13967;SDS011;39536;52.198;9.920;2023-04-01T15:09:38;4.50;;;4.10;;
13967;SDS011;39536;52.198;9.920;2023-04-01T15:12:17;4.10;;;3.67;;
13967;SDS011;39536;52.198;9.920;2023-04-01T15:17:54;3.70;;;3.50;;
13967;SDS011;39536;52.198;9.920;2023-04-01T15:20:35;3.20;;;3.00;;
13967;SDS011;39536;52.198;9.920;2023-04-01T15:23:28;3.53;;;3.33;;
13967;SDS011;39536;52.198;9.920;2023-04-01T15:26:10;3.30;;;3.10;;
13967;SDS011;39536;52.198;9.920;2023-04-01T15:28:45;2.90;;;2.77;;
13967;SDS011;39536;52.198;9.920;2023-04-01T15:31:24;2.60;;;2.50;;
13967;SDS011;39536;52.198;9.920;2023-04-01T15:34:01;2.80;;;2.70;;
13967;SDS011;39536;52.198;9.920;2023-04-01T15:36:44;2.80;;;2.70;;
13967;SDS011;39536;52.198;9.920;2023-04-01T15:39:20;2.67;;;2.57;;
13967;SDS011;39536;52.198;9.920;2023-04-01T15:42:03;3.43;;;3.00;;
13967;SDS011;39536;52.198;9.920;2023-04-01T15:44:52;2.80;;;2.60;;
13967;SDS011;39536;52.198;9.920;2023-04-01T15:47:34;3.23;;;3.03;;
13967;SDS011;39536;52.198;9.920;2023-04-01T15:50:17;3.00;;;2.90;;
13967;SDS011;39536;52.198;9.920;2023-04-01T15:52:58;3.20;;;3.00;;
13967;SDS011;39536;52.198;9.920;2023-04-01T15:55:37;3.50;;;3.30;;
13967;SDS011;39536;52.198;9.920;2023-04-01T15:58:21;3.03;;;2.93;;
13967;SDS011;39536;52.198;9.920;2023-04-01T16:01:04;3.37;;;3.17;;
13967;SDS011;39536;52.198;9.920;2023-04-01T16:03:44;3.40;;;3.20;;
13967;SDS011;39536;52.198;9.920;2023-04-01T16:06:30;3.37;;;3.17;;
13967;SDS011;39536;52.198;9.920;2023-04-01T16:09:19;3.07;;;2.97;;
13967;SDS011;39536;52.198;9.920;2023-04-01T16:12:04;3.10;;;2.90;;
13967;SDS011;39536;52.198;9.920;2023-04-01T16:14:40;3.33;;;3.17;;
13967;SDS011;39536;52.198;9.920;2023-04-01T16:17:19;3.80;;;3.60;;
13967;SDS011;39536;52.198;9.920;2023-04-01T16:19:59;3.80;;;3.60;;
13967;SDS011;39536;52.198;9.920;2023-04-01T16:22:30;4.20;;;4.00;;
13967;SDS011;39536;52.198;9.920;2023-04-01T16:25:05;4.27;;;3.97;;
13967;SDS011;39536;52.198;9.920;2023-04-01T16:27:56;3.43;;;3.23;;
13967;SDS011;39536;52.198;9.920;2023-04-01T16:30:34;3.50;;;3.30;;
13967;SDS011;39536;52.198;9.920;2023-04-01T16:33:03;3.70;;;3.50;;
13967;SDS011;39536;52.198;9.920;2023-04-01T16:35:39;3.40;;;3.20;;
13967;SDS011;39536;52.198;9.920;2023-04-01T16:38:12;2.90;;;2.80;;
13967;SDS011;39536;52.198;9.920;2023-04-01T16:40:50;2.70;;;2.60;;
13967;SDS011;39536;52.198;9.920;2023-04-01T16:43:27;2.43;;;2.33;;
13967;SDS011;39536;52.198;9.920;2023-04-01T16:45:59;3.20;;;3.00;;
13967;SDS011;39536;52.198;9.920;2023-04-01T16:48:45;3.50;;;3.30;;
13967;SDS011;39536;52.198;9.920;2023-04-01T16:51:23;3.40;;;3.20;;
13967;SDS011;39536;52.198;9.920;2023-04-01T16:53:52;2.50;;;2.40;;
13967;SDS011;39536;52.198;9.920;2023-04-01T16:56:36;2.23;;;1.90;;